sensor_id;sensor_type;location;lat;lon;timestamp;P1;durP1;ratioP1;P2;durP2;ratioP2
52866;SDS011;38739;53.324;6.862;2023-05-31T00:00:21;12.10;;;5.10;;
52866;SDS011;38739;53.324;6.862;2023-05-31T00:02:47;11.38;;;5.05;;
52866;SDS011;38739;53.324;6.862;2023-05-31T00:05:13;9.05;;;4.55;;
52866;SDS011;38739;53.324;6.862;2023-05-31T00:07:38;11.80;;;4.95;;
52866;SDS011;38739;53.324;6.862;2023-05-31T00:10:04;9.52;;;5.18;;
52866;SDS011;38739;53.324;6.862;2023-05-31T00:12:30;10.50;;;5.00;;
52866;SDS011;38739;53.324;6.862;2023-05-31T00:14:56;12.20;;;5.40;;
52866;SDS011;38739;53.324;6.862;2023-05-31T00:17:21;15.55;;;5.32;;
52866;SDS011;38739;53.324;6.862;2023-05-31T00:19:47;15.93;;;5.82;;
52866;SDS011;38739;53.324;6.862;2023-05-31T00:22:13;16.63;;;6.15;;
52866;SDS011;38739;53.324;6.862;2023-05-31T00:24:41;16.27;;;5.30;;
52866;SDS011;38739;53.324;6.862;2023-05-31T00:27:10;16.52;;;5.50;;
52866;SDS011;38739;53.324;6.862;2023-05-31T00:29:36;15.95;;;5.95;;
52866;SDS011;38739;53.324;6.862;2023-05-31T00:32:01;12.00;;;5.80;;
52866;SDS011;38739;53.324;6.862;2023-05-31T00:34:27;10.82;;;5.22;;
52866;SDS011;38739;53.324;6.862;2023-05-31T00:36:53;15.52;;;5.57;;
52866;SDS011;38739;53.324;6.862;2023-05-31T00:39:18;14.68;;;5.85;;
52866;SDS011;38739;53.324;6.862;2023-05-31T00:41:44;13.20;;;6.07;;
52866;SDS011;38739;53.324;6.862;2023-05-31T00:44:10;14.68;;;6.53;;
52866;SDS011;38739;53.324;6.862;2023-05-31T00:46:36;15.10;;;6.70;;
52866;SDS011;38739;53.324;6.862;2023-05-31T00:49:04;13.52;;;6.03;;
52866;SDS011;38739;53.324;6.862;2023-05-31T00:51:30;16.60;;;6.95;;
52866;SDS011;38739;53.324;6.862;2023-05-31T00:53:57;13.45;;;6.45;;
52866;SDS011;38739;53.324;6.862;2023-05-31T00:56:24;15.15;;;6.85;;
52866;SDS011;38739;53.324;6.862;2023-05-31T00:58:50;10.52;;;6.30;;
52866;SDS011;38739;53.324;6.862;2023-05-31T01:01:18;13.32;;;6.75;;
52866;SDS011;38739;53.324;6.862;2023-05-31T01:03:46;16.60;;;6.88;;
52866;SDS011;38739;53.324;6.862;2023-05-31T01:06:12;15.60;;;6.97;;
52866;SDS011;38739;53.324;6.862;2023-05-31T01:08:38;17.08;;;6.50;;
52866;SDS011;38739;53.324;6.862;2023-05-31T01:11:17;19.17;;;6.82;;
52866;SDS011;38739;53.324;6.862;2023-05-31T01:17:09;16.52;;;6.63;;
52866;SDS011;38739;53.324;6.862;2023-05-31T01:19:54;17.65;;;6.57;;
52866;SDS011;38739;53.324;6.862;2023-05-31T01:28:14;14.98;;;6.65;;
52866;SDS011;38739;53.324;6.862;2023-05-31T01:30:41;14.88;;;7.10;;
52866;SDS011;38739;53.324;6.862;2023-05-31T01:33:10;15.25;;;6.80;;
52866;SDS011;38739;53.324;6.862;2023-05-31T01:35:37;15.93;;;7.30;;
52866;SDS011;38739;53.324;6.862;2023-05-31T01:38:03;17.92;;;7.93;;
52866;SDS011;38739;53.324;6.862;2023-05-31T01:40:29;16.23;;;7.03;;
52866;SDS011;38739;53.324;6.862;2023-05-31T01:42:56;20.25;;;8.23;;
52866;SDS011;38739;53.324;6.862;2023-05-31T01:45:22;20.35;;;8.55;;
52866;SDS011;38739;53.324;6.862;2023-05-31T01:47:53;19.73;;;7.78;;
52866;SDS011;38739;53.324;6.862;2023-05-31T01:50:27;15.52;;;8.27;;
52866;SDS011;38739;53.324;6.862;2023-05-31T01:52:54;19.88;;;8.93;;
52866;SDS011;38739;53.324;6.862;2023-05-31T01:55:19;20.02;;;8.57;;
52866;SDS011;38739;53.324;6.862;2023-05-31T01:57:45;19.23;;;8.98;;
52866;SDS011;38739;53.324;6.862;2023-05-31T02:00:12;17.42;;;8.23;;
52866;SDS011;38739;53.324;6.862;2023-05-31T02:02:43;23.08;;;8.93;;
52866;SDS011;38739;53.324;6.862;2023-05-31T02:05:10;19.80;;;8.60;;
52866;SDS011;38739;53.324;6.862;2023-05-31T02:07:38;23.58;;;8.93;;
52866;SDS011;38739;53.324;6.862;2023-05-31T02:10:07;22.17;;;8.73;;
52866;SDS011;38739;53.324;6.862;2023-05-31T02:12:33;18.70;;;8.82;;
52866;SDS011;38739;53.324;6.862;2023-05-31T02:14:59;20.58;;;9.10;;
52866;SDS011;38739;53.324;6.862;2023-05-31T02:17:25;19.40;;;8.75;;
52866;SDS011;38739;53.324;6.862;2023-05-31T02:19:54;21.70;;;8.77;;
52866;SDS011;38739;53.324;6.862;2023-05-31T02:22:20;20.52;;;8.98;;
52866;SDS011;38739;53.324;6.862;2023-05-31T02:24:46;21.40;;;9.52;;
52866;SDS011;38739;53.324;6.862;2023-05-31T02:27:13;21.73;;;8.30;;
52866;SDS011;38739;53.324;6.862;2023-05-31T02:29:39;17.80;;;8.75;;
52866;SDS011;38739;53.324;6.862;2023-05-31T02:32:05;20.27;;;9.02;;
52866;SDS011;38739;53.324;6.862;2023-05-31T02:34:32;19.85;;;8.20;;
52866;SDS011;38739;53.324;6.862;2023-05-31T02:36:59;17.83;;;8.73;;
52866;SDS011;38739;53.324;6.862;2023-05-31T02:39:25;15.32;;;7.97;;
52866;SDS011;38739;53.324;6.862;2023-05-31T02:41:51;17.92;;;8.30;;
52866;SDS011;38739;53.324;6.862;2023-05-31T02:44:17;15.50;;;7.93;;
52866;SDS011;38739;53.324;6.862;2023-05-31T02:46:42;13.82;;;6.78;;
52866;SDS011;38739;53.324;6.862;2023-05-31T02:49:08;16.67;;;8.05;;
52866;SDS011;38739;53.324;6.862;2023-05-31T02:51:34;20.75;;;7.93;;
52866;SDS011;38739;53.324;6.862;2023-05-31T02:54:00;18.17;;;7.90;;
52866;SDS011;38739;53.324;6.862;2023-05-31T02:56:26;19.40;;;8.32;;
52866;SDS011;38739;53.324;6.862;2023-05-31T02:58:51;18.13;;;8.30;;
52866;SDS011;38739;53.324;6.862;2023-05-31T03:01:17;15.60;;;7.43;;
52866;SDS011;38739;53.324;6.862;2023-05-31T03:03:43;15.85;;;7.28;;
52866;SDS011;38739;53.324;6.862;2023-05-31T03:06:09;19.85;;;8.02;;
52866;SDS011;38739;53.324;6.862;2023-05-31T03:08:36;19.50;;;7.78;;
52866;SDS011;38739;53.324;6.862;2023-05-31T03:11:02;18.55;;;7.50;;
52866;SDS011;38739;53.324;6.862;2023-05-31T03:13:28;18.00;;;7.68;;
52866;SDS011;38739;53.324;6.862;2023-05-31T03:15:53;18.33;;;7.60;;
52866;SDS011;38739;53.324;6.862;2023-05-31T03:18:19;18.17;;;8.00;;
52866;SDS011;38739;53.324;6.862;2023-05-31T03:20:45;18.35;;;7.82;;
52866;SDS011;38739;53.324;6.862;2023-05-31T03:23:11;15.13;;;7.13;;
52866;SDS011;38739;53.324;6.862;2023-05-31T03:25:37;14.60;;;6.78;;
52866;SDS011;38739;53.324;6.862;2023-05-31T03:28:02;15.88;;;7.35;;
52866;SDS011;38739;53.324;6.862;2023-05-31T03:30:29;15.68;;;7.25;;
52866;SDS011;38739;53.324;6.862;2023-05-31T03:32:54;20.10;;;8.48;;
52866;SDS011;38739;53.324;6.862;2023-05-31T03:35:20;18.65;;;7.47;;
52866;SDS011;38739;53.324;6.862;2023-05-31T03:37:46;14.43;;;7.20;;
52866;SDS011;38739;53.324;6.862;2023-05-31T03:40:11;15.88;;;7.05;;
52866;SDS011;38739;53.324;6.862;2023-05-31T03:42:37;10.80;;;6.30;;
52866;SDS011;38739;53.324;6.862;2023-05-31T03:45:03;13.88;;;6.80;;
52866;SDS011;38739;53.324;6.862;2023-05-31T03:47:29;13.85;;;6.07;;
52866;SDS011;38739;53.324;6.862;2023-05-31T03:49:55;11.90;;;6.28;;
52866;SDS011;38739;53.324;6.862;2023-05-31T03:52:20;14.40;;;6.32;;
52866;SDS011;38739;53.324;6.862;2023-05-31T03:54:46;11.90;;;6.15;;
52866;SDS011;38739;53.324;6.862;2023-05-31T03:57:12;11.68;;;6.68;;
52866;SDS011;38739;53.324;6.862;2023-05-31T03:59:38;14.20;;;6.75;;
52866;SDS011;38739;53.324;6.862;2023-05-31T04:02:04;11.30;;;5.93;;
52866;SDS011;38739;53.324;6.862;2023-05-31T04:04:29;13.98;;;6.63;;
52866;SDS011;38739;53.324;6.862;2023-05-31T04:06:55;11.90;;;6.50;;
52866;SDS011;38739;53.324;6.862;2023-05-31T04:09:21;12.68;;;7.00;;
52866;SDS011;38739;53.324;6.862;2023-05-31T04:11:48;12.82;;;7.03;;
52866;SDS011;38739;53.324;6.862;2023-05-31T04:14:15;11.18;;;6.63;;
52866;SDS011;38739;53.324;6.862;2023-05-31T04:16:41;12.27;;;6.75;;
52866;SDS011;38739;53.324;6.862;2023-05-31T04:19:07;17.30;;;7.65;;
52866;SDS011;38739;53.324;6.862;2023-05-31T04:21:33;14.50;;;7.07;;
52866;SDS011;38739;53.324;6.862;2023-05-31T04:23:59;15.30;;;7.30;;
52866;SDS011;38739;53.324;6.862;2023-05-31T04:26:25;14.23;;;6.70;;
52866;SDS011;38739;53.324;6.862;2023-05-31T04:28:51;16.15;;;7.45;;
52866;SDS011;38739;53.324;6.862;2023-05-31T04:31:18;15.45;;;6.90;;
52866;SDS011;38739;53.324;6.862;2023-05-31T04:33:45;15.75;;;7.47;;
52866;SDS011;38739;53.324;6.862;2023-05-31T04:36:10;15.02;;;7.82;;
52866;SDS011;38739;53.324;6.862;2023-05-31T04:38:37;20.88;;;8.20;;
52866;SDS011;38739;53.324;6.862;2023-05-31T04:41:04;16.50;;;8.18;;
52866;SDS011;38739;53.324;6.862;2023-05-31T04:43:30;17.80;;;7.18;;
52866;SDS011;38739;53.324;6.862;2023-05-31T04:45:55;18.98;;;7.82;;
52866;SDS011;38739;53.324;6.862;2023-05-31T04:48:22;17.55;;;8.30;;
52866;SDS011;38739;53.324;6.862;2023-05-31T04:50:48;15.32;;;8.02;;
52866;SDS011;38739;53.324;6.862;2023-05-31T04:53:14;22.48;;;9.07;;
52866;SDS011;38739;53.324;6.862;2023-05-31T04:55:40;24.20;;;9.15;;
52866;SDS011;38739;53.324;6.862;2023-05-31T04:58:06;17.83;;;8.90;;
52866;SDS011;38739;53.324;6.862;2023-05-31T05:00:33;25.40;;;10.15;;
52866;SDS011;38739;53.324;6.862;2023-05-31T05:02:59;24.92;;;9.82;;
52866;SDS011;38739;53.324;6.862;2023-05-31T05:05:26;16.17;;;8.50;;
52866;SDS011;38739;53.324;6.862;2023-05-31T05:07:52;26.38;;;10.38;;
52866;SDS011;38739;53.324;6.862;2023-05-31T05:10:18;31.65;;;10.80;;
52866;SDS011;38739;53.324;6.862;2023-05-31T05:12:43;22.98;;;9.60;;
52866;SDS011;38739;53.324;6.862;2023-05-31T05:15:09;33.67;;;11.20;;
52866;SDS011;38739;53.324;6.862;2023-05-31T05:17:35;24.33;;;9.98;;
52866;SDS011;38739;53.324;6.862;2023-05-31T05:20:02;28.20;;;9.20;;
52866;SDS011;38739;53.324;6.862;2023-05-31T05:22:33;28.98;;;10.65;;
52866;SDS011;38739;53.324;6.862;2023-05-31T05:24:59;24.67;;;10.25;;
52866;SDS011;38739;53.324;6.862;2023-05-31T05:27:25;28.80;;;10.98;;
52866;SDS011;38739;53.324;6.862;2023-05-31T05:29:51;25.88;;;9.45;;
52866;SDS011;38739;53.324;6.862;2023-05-31T05:32:16;19.73;;;6.50;;
52866;SDS011;38739;53.324;6.862;2023-05-31T05:34:42;15.98;;;6.13;;
52866;SDS011;38739;53.324;6.862;2023-05-31T05:37:08;10.95;;;4.57;;
52866;SDS011;38739;53.324;6.862;2023-05-31T05:39:33;14.10;;;5.03;;
52866;SDS011;38739;53.324;6.862;2023-05-31T05:41:59;10.70;;;4.38;;
52866;SDS011;38739;53.324;6.862;2023-05-31T05:44:26;8.57;;;4.68;;
52866;SDS011;38739;53.324;6.862;2023-05-31T05:46:52;11.13;;;4.80;;
52866;SDS011;38739;53.324;6.862;2023-05-31T05:49:17;8.32;;;4.97;;
52866;SDS011;38739;53.324;6.862;2023-05-31T05:51:43;11.77;;;4.90;;
52866;SDS011;38739;53.324;6.862;2023-05-31T05:54:09;12.30;;;4.22;;
52866;SDS011;38739;53.324;6.862;2023-05-31T05:56:34;11.43;;;5.05;;
52866;SDS011;38739;53.324;6.862;2023-05-31T05:59:00;9.05;;;4.88;;
52866;SDS011;38739;53.324;6.862;2023-05-31T06:01:26;7.65;;;4.30;;
52866;SDS011;38739;53.324;6.862;2023-05-31T06:03:52;7.13;;;3.35;;
52866;SDS011;38739;53.324;6.862;2023-05-31T06:06:19;7.25;;;3.55;;
52866;SDS011;38739;53.324;6.862;2023-05-31T06:08:45;10.02;;;3.30;;
52866;SDS011;38739;53.324;6.862;2023-05-31T06:11:11;10.88;;;2.70;;
52866;SDS011;38739;53.324;6.862;2023-05-31T06:13:37;8.93;;;2.95;;
52866;SDS011;38739;53.324;6.862;2023-05-31T06:16:03;6.68;;;2.90;;
52866;SDS011;38739;53.324;6.862;2023-05-31T06:18:30;9.48;;;2.50;;
52866;SDS011;38739;53.324;6.862;2023-05-31T06:20:56;6.93;;;2.38;;
52866;SDS011;38739;53.324;6.862;2023-05-31T06:23:22;6.88;;;1.80;;
52866;SDS011;38739;53.324;6.862;2023-05-31T06:25:48;6.78;;;1.85;;
52866;SDS011;38739;53.324;6.862;2023-05-31T06:28:13;5.93;;;1.50;;
52866;SDS011;38739;53.324;6.862;2023-05-31T06:30:39;5.20;;;1.60;;
52866;SDS011;38739;53.324;6.862;2023-05-31T06:33:07;9.82;;;1.85;;
52866;SDS011;38739;53.324;6.862;2023-05-31T06:35:33;4.32;;;1.30;;
52866;SDS011;38739;53.324;6.862;2023-05-31T06:37:58;6.47;;;1.85;;
52866;SDS011;38739;53.324;6.862;2023-05-31T06:40:24;6.03;;;1.40;;
52866;SDS011;38739;53.324;6.862;2023-05-31T06:42:50;5.03;;;1.40;;
52866;SDS011;38739;53.324;6.862;2023-05-31T06:45:15;5.85;;;1.40;;
52866;SDS011;38739;53.324;6.862;2023-05-31T06:47:41;7.05;;;1.52;;
52866;SDS011;38739;53.324;6.862;2023-05-31T06:50:07;7.03;;;1.25;;
52866;SDS011;38739;53.324;6.862;2023-05-31T06:52:34;2.75;;;1.00;;
52866;SDS011;38739;53.324;6.862;2023-05-31T06:55:00;5.00;;;1.35;;
52866;SDS011;38739;53.324;6.862;2023-05-31T06:57:26;5.80;;;1.40;;
52866;SDS011;38739;53.324;6.862;2023-05-31T06:59:51;4.60;;;1.30;;
52866;SDS011;38739;53.324;6.862;2023-05-31T07:02:17;5.18;;;1.52;;
52866;SDS011;38739;53.324;6.862;2023-05-31T07:04:43;8.88;;;1.90;;
52866;SDS011;38739;53.324;6.862;2023-05-31T07:07:08;4.43;;;1.42;;
52866;SDS011;38739;53.324;6.862;2023-05-31T07:09:34;7.05;;;1.55;;
52866;SDS011;38739;53.324;6.862;2023-05-31T07:12:00;7.80;;;1.73;;
52866;SDS011;38739;53.324;6.862;2023-05-31T07:14:30;7.22;;;1.58;;
52866;SDS011;38739;53.324;6.862;2023-05-31T07:16:55;5.20;;;1.70;;
52866;SDS011;38739;53.324;6.862;2023-05-31T07:19:21;8.68;;;2.03;;
52866;SDS011;38739;53.324;6.862;2023-05-31T07:21:47;8.23;;;2.05;;
52866;SDS011;38739;53.324;6.862;2023-05-31T07:24:13;8.77;;;2.42;;
52866;SDS011;38739;53.324;6.862;2023-05-31T07:26:38;12.57;;;2.42;;
52866;SDS011;38739;53.324;6.862;2023-05-31T07:29:04;10.45;;;2.78;;
52866;SDS011;38739;53.324;6.862;2023-05-31T07:31:30;8.68;;;2.17;;
52866;SDS011;38739;53.324;6.862;2023-05-31T07:33:55;7.65;;;2.05;;
52866;SDS011;38739;53.324;6.862;2023-05-31T07:36:21;9.18;;;2.80;;
52866;SDS011;38739;53.324;6.862;2023-05-31T07:38:50;10.45;;;2.55;;
52866;SDS011;38739;53.324;6.862;2023-05-31T07:41:17;10.60;;;2.92;;
52866;SDS011;38739;53.324;6.862;2023-05-31T07:43:43;10.13;;;2.65;;
52866;SDS011;38739;53.324;6.862;2023-05-31T07:46:11;8.80;;;2.80;;
52866;SDS011;38739;53.324;6.862;2023-05-31T07:48:37;11.43;;;2.85;;
52866;SDS011;38739;53.324;6.862;2023-05-31T07:51:02;12.63;;;2.83;;
52866;SDS011;38739;53.324;6.862;2023-05-31T07:53:28;8.57;;;2.60;;
52866;SDS011;38739;53.324;6.862;2023-05-31T07:55:55;12.52;;;3.13;;
52866;SDS011;38739;53.324;6.862;2023-05-31T07:58:20;10.10;;;2.70;;
52866;SDS011;38739;53.324;6.862;2023-05-31T08:00:46;13.00;;;2.78;;
52866;SDS011;38739;53.324;6.862;2023-05-31T08:03:21;10.43;;;2.90;;
52866;SDS011;38739;53.324;6.862;2023-05-31T08:05:56;12.30;;;3.20;;
52866;SDS011;38739;53.324;6.862;2023-05-31T08:08:21;12.57;;;3.25;;
52866;SDS011;38739;53.324;6.862;2023-05-31T08:10:48;9.98;;;3.38;;
52866;SDS011;38739;53.324;6.862;2023-05-31T08:13:13;16.98;;;3.40;;
52866;SDS011;38739;53.324;6.862;2023-05-31T08:15:39;11.00;;;3.25;;
52866;SDS011;38739;53.324;6.862;2023-05-31T08:18:05;10.48;;;3.45;;
52866;SDS011;38739;53.324;6.862;2023-05-31T08:20:31;9.35;;;2.90;;
52866;SDS011;38739;53.324;6.862;2023-05-31T08:22:56;12.80;;;3.85;;
52866;SDS011;38739;53.324;6.862;2023-05-31T08:25:22;11.35;;;3.58;;
52866;SDS011;38739;53.324;6.862;2023-05-31T08:27:49;15.10;;;3.63;;
52866;SDS011;38739;53.324;6.862;2023-05-31T08:30:15;15.80;;;3.75;;
52866;SDS011;38739;53.324;6.862;2023-05-31T08:32:41;16.52;;;4.20;;
52866;SDS011;38739;53.324;6.862;2023-05-31T08:35:07;15.85;;;3.60;;
52866;SDS011;38739;53.324;6.862;2023-05-31T08:37:35;14.07;;;4.20;;
52866;SDS011;38739;53.324;6.862;2023-05-31T08:40:01;15.98;;;4.38;;
52866;SDS011;38739;53.324;6.862;2023-05-31T08:42:31;15.05;;;4.30;;
52866;SDS011;38739;53.324;6.862;2023-05-31T08:45:12;14.95;;;5.15;;
52866;SDS011;38739;53.324;6.862;2023-05-31T08:50:48;9.73;;;4.03;;
52866;SDS011;38739;53.324;6.862;2023-05-31T08:53:16;11.98;;;4.90;;
52866;SDS011;38739;53.324;6.862;2023-05-31T08:55:43;14.18;;;5.32;;
52866;SDS011;38739;53.324;6.862;2023-05-31T08:58:11;10.10;;;4.68;;
52866;SDS011;38739;53.324;6.862;2023-05-31T09:00:38;9.00;;;4.38;;
52866;SDS011;38739;53.324;6.862;2023-05-31T09:03:05;8.65;;;4.68;;
52866;SDS011;38739;53.324;6.862;2023-05-31T09:05:32;9.90;;;4.93;;
52866;SDS011;38739;53.324;6.862;2023-05-31T09:07:59;8.77;;;5.18;;
52866;SDS011;38739;53.324;6.862;2023-05-31T09:10:25;11.68;;;5.95;;
52866;SDS011;38739;53.324;6.862;2023-05-31T09:12:51;8.55;;;4.60;;
52866;SDS011;38739;53.324;6.862;2023-05-31T09:15:18;10.02;;;4.50;;
52866;SDS011;38739;53.324;6.862;2023-05-31T09:17:46;10.07;;;4.28;;
52866;SDS011;38739;53.324;6.862;2023-05-31T09:20:12;11.02;;;4.60;;
52866;SDS011;38739;53.324;6.862;2023-05-31T09:22:38;9.82;;;4.85;;
52866;SDS011;38739;53.324;6.862;2023-05-31T09:25:05;11.55;;;4.65;;
52866;SDS011;38739;53.324;6.862;2023-05-31T09:27:38;7.53;;;3.92;;
52866;SDS011;38739;53.324;6.862;2023-05-31T09:32:33;10.68;;;4.43;;
52866;SDS011;38739;53.324;6.862;2023-05-31T09:35:10;6.85;;;3.90;;
52866;SDS011;38739;53.324;6.862;2023-05-31T09:37:47;8.45;;;4.07;;
52866;SDS011;38739;53.324;6.862;2023-05-31T09:40:14;7.55;;;3.33;;
52866;SDS011;38739;53.324;6.862;2023-05-31T09:42:50;10.98;;;3.40;;
52866;SDS011;38739;53.324;6.862;2023-05-31T09:45:20;10.02;;;3.53;;
52866;SDS011;38739;53.324;6.862;2023-05-31T09:47:46;7.40;;;3.10;;
52866;SDS011;38739;53.324;6.862;2023-05-31T09:50:16;11.98;;;3.63;;
52866;SDS011;38739;53.324;6.862;2023-05-31T09:52:43;7.22;;;3.55;;
52866;SDS011;38739;53.324;6.862;2023-05-31T09:55:10;10.18;;;4.18;;
52866;SDS011;38739;53.324;6.862;2023-05-31T09:57:39;8.63;;;3.80;;
52866;SDS011;38739;53.324;6.862;2023-05-31T10:00:09;10.63;;;4.05;;
52866;SDS011;38739;53.324;6.862;2023-05-31T10:02:52;9.38;;;3.45;;
52866;SDS011;38739;53.324;6.862;2023-05-31T10:05:19;9.68;;;3.53;;
52866;SDS011;38739;53.324;6.862;2023-05-31T10:07:46;9.90;;;3.33;;
52866;SDS011;38739;53.324;6.862;2023-05-31T10:10:16;8.70;;;2.97;;
52866;SDS011;38739;53.324;6.862;2023-05-31T10:12:48;5.93;;;2.47;;
52866;SDS011;38739;53.324;6.862;2023-05-31T10:15:19;11.25;;;3.40;;
52866;SDS011;38739;53.324;6.862;2023-05-31T10:17:59;8.65;;;2.35;;
52866;SDS011;38739;53.324;6.862;2023-05-31T10:21:15;8.30;;;2.75;;
52866;SDS011;38739;53.324;6.862;2023-05-31T10:28:56;9.10;;;2.58;;
52866;SDS011;38739;53.324;6.862;2023-05-31T10:31:30;7.47;;;2.83;;
52866;SDS011;38739;53.324;6.862;2023-05-31T10:34:03;9.30;;;2.80;;
52866;SDS011;38739;53.324;6.862;2023-05-31T10:37:00;8.13;;;2.35;;
52866;SDS011;38739;53.324;6.862;2023-05-31T10:39:46;8.50;;;2.90;;
52866;SDS011;38739;53.324;6.862;2023-05-31T10:45:23;5.72;;;2.75;;
52866;SDS011;38739;53.324;6.862;2023-05-31T10:50:36;9.02;;;2.70;;
52866;SDS011;38739;53.324;6.862;2023-05-31T10:56:15;7.43;;;2.50;;
52866;SDS011;38739;53.324;6.862;2023-05-31T10:58:47;9.63;;;2.90;;
52866;SDS011;38739;53.324;6.862;2023-05-31T11:01:16;8.32;;;3.30;;
52866;SDS011;38739;53.324;6.862;2023-05-31T11:03:52;8.57;;;2.70;;
52866;SDS011;38739;53.324;6.862;2023-05-31T11:06:25;10.05;;;2.80;;
52866;SDS011;38739;53.324;6.862;2023-05-31T11:08:56;6.18;;;2.55;;
52866;SDS011;38739;53.324;6.862;2023-05-31T11:14:05;8.77;;;2.50;;
52866;SDS011;38739;53.324;6.862;2023-05-31T11:16:32;7.70;;;2.67;;
52866;SDS011;38739;53.324;6.862;2023-05-31T11:19:06;5.95;;;2.40;;
52866;SDS011;38739;53.324;6.862;2023-05-31T11:22:15;8.63;;;3.30;;
52866;SDS011;38739;53.324;6.862;2023-05-31T11:26:52;8.43;;;4.07;;
52866;SDS011;38739;53.324;6.862;2023-05-31T11:29:18;9.85;;;3.60;;
52866;SDS011;38739;53.324;6.862;2023-05-31T11:34:29;9.57;;;3.67;;
52866;SDS011;38739;53.324;6.862;2023-05-31T11:36:56;8.63;;;3.17;;
52866;SDS011;38739;53.324;6.862;2023-05-31T11:39:24;6.63;;;2.90;;
52866;SDS011;38739;53.324;6.862;2023-05-31T11:41:51;5.75;;;2.80;;
52866;SDS011;38739;53.324;6.862;2023-05-31T11:44:31;6.72;;;2.90;;
52866;SDS011;38739;53.324;6.862;2023-05-31T11:47:00;8.40;;;3.10;;
52866;SDS011;38739;53.324;6.862;2023-05-31T11:49:30;7.25;;;3.05;;
52866;SDS011;38739;53.324;6.862;2023-05-31T11:51:59;7.55;;;2.90;;
52866;SDS011;38739;53.324;6.862;2023-05-31T11:54:26;8.80;;;3.55;;
52866;SDS011;38739;53.324;6.862;2023-05-31T11:56:59;8.43;;;3.65;;
52866;SDS011;38739;53.324;6.862;2023-05-31T11:59:27;8.35;;;3.35;;
52866;SDS011;38739;53.324;6.862;2023-05-31T12:02:00;8.60;;;2.70;;
52866;SDS011;38739;53.324;6.862;2023-05-31T12:04:31;7.60;;;3.30;;
52866;SDS011;38739;53.324;6.862;2023-05-31T12:06:58;8.00;;;3.50;;
52866;SDS011;38739;53.324;6.862;2023-05-31T12:09:24;9.45;;;3.60;;
52866;SDS011;38739;53.324;6.862;2023-05-31T12:11:51;9.93;;;2.50;;
52866;SDS011;38739;53.324;6.862;2023-05-31T12:14:17;6.50;;;2.85;;
52866;SDS011;38739;53.324;6.862;2023-05-31T12:16:43;6.68;;;3.17;;
52866;SDS011;38739;53.324;6.862;2023-05-31T12:19:13;7.10;;;3.05;;
52866;SDS011;38739;53.324;6.862;2023-05-31T12:21:39;5.78;;;2.92;;
52866;SDS011;38739;53.324;6.862;2023-05-31T12:24:15;8.02;;;3.22;;
52866;SDS011;38739;53.324;6.862;2023-05-31T12:26:42;6.82;;;2.90;;
52866;SDS011;38739;53.324;6.862;2023-05-31T12:29:12;5.97;;;2.97;;
52866;SDS011;38739;53.324;6.862;2023-05-31T12:31:38;7.28;;;3.35;;
52866;SDS011;38739;53.324;6.862;2023-05-31T12:37:04;5.22;;;3.10;;
52866;SDS011;38739;53.324;6.862;2023-05-31T12:39:23;7.90;;;3.40;;
52866;SDS011;38739;53.324;6.862;2023-05-31T12:41:50;8.43;;;3.40;;
52866;SDS011;38739;53.324;6.862;2023-05-31T12:44:19;7.43;;;3.38;;
52866;SDS011;38739;53.324;6.862;2023-05-31T12:46:50;7.13;;;3.60;;
52866;SDS011;38739;53.324;6.862;2023-05-31T12:49:23;9.40;;;3.00;;
52866;SDS011;38739;53.324;6.862;2023-05-31T12:51:58;7.47;;;2.92;;
52866;SDS011;38739;53.324;6.862;2023-05-31T12:54:26;7.07;;;3.15;;
52866;SDS011;38739;53.324;6.862;2023-05-31T12:56:53;7.57;;;2.90;;
52866;SDS011;38739;53.324;6.862;2023-05-31T12:59:21;8.65;;;3.28;;
52866;SDS011;38739;53.324;6.862;2023-05-31T13:01:46;11.25;;;4.00;;
52866;SDS011;38739;53.324;6.862;2023-05-31T13:04:12;7.38;;;3.22;;
52866;SDS011;38739;53.324;6.862;2023-05-31T13:06:39;9.70;;;3.50;;
52866;SDS011;38739;53.324;6.862;2023-05-31T13:09:05;6.68;;;3.10;;
52866;SDS011;38739;53.324;6.862;2023-05-31T13:11:38;5.50;;;3.20;;
52866;SDS011;38739;53.324;6.862;2023-05-31T13:14:05;9.05;;;3.47;;
52866;SDS011;38739;53.324;6.862;2023-05-31T13:16:33;7.43;;;2.88;;
52866;SDS011;38739;53.324;6.862;2023-05-31T13:19:01;7.13;;;3.25;;
52866;SDS011;38739;53.324;6.862;2023-05-31T13:21:28;8.50;;;3.40;;
52866;SDS011;38739;53.324;6.862;2023-05-31T13:23:55;6.63;;;2.47;;
52866;SDS011;38739;53.324;6.862;2023-05-31T13:26:21;7.88;;;2.90;;
52866;SDS011;38739;53.324;6.862;2023-05-31T13:28:48;7.55;;;2.55;;
52866;SDS011;38739;53.324;6.862;2023-05-31T13:31:15;6.10;;;2.50;;
52866;SDS011;38739;53.324;6.862;2023-05-31T13:33:42;5.90;;;2.75;;
52866;SDS011;38739;53.324;6.862;2023-05-31T13:36:07;6.60;;;2.95;;
52866;SDS011;38739;53.324;6.862;2023-05-31T13:38:33;8.77;;;2.90;;
52866;SDS011;38739;53.324;6.862;2023-05-31T13:40:59;7.38;;;3.25;;
52866;SDS011;38739;53.324;6.862;2023-05-31T13:43:25;8.55;;;3.50;;
52866;SDS011;38739;53.324;6.862;2023-05-31T13:45:51;5.55;;;2.88;;
52866;SDS011;38739;53.324;6.862;2023-05-31T13:48:17;7.25;;;3.10;;
52866;SDS011;38739;53.324;6.862;2023-05-31T13:50:44;7.47;;;2.90;;
52866;SDS011;38739;53.324;6.862;2023-05-31T13:53:10;9.20;;;3.50;;
52866;SDS011;38739;53.324;6.862;2023-05-31T13:55:39;6.47;;;2.85;;
52866;SDS011;38739;53.324;6.862;2023-05-31T13:58:04;6.80;;;2.63;;
52866;SDS011;38739;53.324;6.862;2023-05-31T14:00:31;7.93;;;3.03;;
52866;SDS011;38739;53.324;6.862;2023-05-31T14:02:57;7.75;;;2.72;;
52866;SDS011;38739;53.324;6.862;2023-05-31T14:05:23;6.38;;;2.47;;
52866;SDS011;38739;53.324;6.862;2023-05-31T14:07:51;4.72;;;2.10;;
52866;SDS011;38739;53.324;6.862;2023-05-31T14:10:17;6.13;;;2.10;;
52866;SDS011;38739;53.324;6.862;2023-05-31T14:12:43;7.65;;;2.72;;
52866;SDS011;38739;53.324;6.862;2023-05-31T14:15:09;5.22;;;2.65;;
52866;SDS011;38739;53.324;6.862;2023-05-31T14:17:35;5.72;;;2.65;;
52866;SDS011;38739;53.324;6.862;2023-05-31T14:20:01;7.90;;;3.15;;
52866;SDS011;38739;53.324;6.862;2023-05-31T14:22:28;7.45;;;2.40;;
52866;SDS011;38739;53.324;6.862;2023-05-31T14:24:54;6.55;;;2.20;;
52866;SDS011;38739;53.324;6.862;2023-05-31T14:27:19;9.57;;;2.92;;
52866;SDS011;38739;53.324;6.862;2023-05-31T14:29:45;6.45;;;2.70;;
52866;SDS011;38739;53.324;6.862;2023-05-31T14:32:11;7.60;;;3.22;;
52866;SDS011;38739;53.324;6.862;2023-05-31T14:34:39;8.70;;;3.58;;
52866;SDS011;38739;53.324;6.862;2023-05-31T14:37:05;9.95;;;3.50;;
52866;SDS011;38739;53.324;6.862;2023-05-31T14:39:31;8.93;;;3.70;;
52866;SDS011;38739;53.324;6.862;2023-05-31T14:41:57;8.95;;;3.40;;
52866;SDS011;38739;53.324;6.862;2023-05-31T14:44:24;6.07;;;3.47;;
52866;SDS011;38739;53.324;6.862;2023-05-31T14:46:50;6.10;;;3.50;;
52866;SDS011;38739;53.324;6.862;2023-05-31T14:49:20;9.35;;;4.05;;
52866;SDS011;38739;53.324;6.862;2023-05-31T14:51:46;7.97;;;3.60;;
52866;SDS011;38739;53.324;6.862;2023-05-31T14:54:12;7.55;;;4.47;;
52866;SDS011;38739;53.324;6.862;2023-05-31T14:56:38;7.80;;;5.22;;
52866;SDS011;38739;53.324;6.862;2023-05-31T14:59:04;9.98;;;5.80;;
52866;SDS011;38739;53.324;6.862;2023-05-31T15:01:30;11.65;;;6.88;;
52866;SDS011;38739;53.324;6.862;2023-05-31T15:03:55;15.45;;;9.38;;
52866;SDS011;38739;53.324;6.862;2023-05-31T15:06:21;12.48;;;8.88;;
52866;SDS011;38739;53.324;6.862;2023-05-31T15:08:48;16.70;;;10.93;;
52866;SDS011;38739;53.324;6.862;2023-05-31T15:11:14;12.50;;;9.05;;
52866;SDS011;38739;53.324;6.862;2023-05-31T15:13:40;12.30;;;7.75;;
52866;SDS011;38739;53.324;6.862;2023-05-31T15:16:06;13.30;;;10.07;;
52866;SDS011;38739;53.324;6.862;2023-05-31T15:18:31;16.80;;;9.57;;
52866;SDS011;38739;53.324;6.862;2023-05-31T15:20:57;13.95;;;8.90;;